Time;durP1;ratioP1;P1;durP2;ratioP2;P2;SDS_P1;SDS_P2;PMS_P1;PMS_P2;Temp;Humidity;BMP_temperature;BMP_pressure;BME280_temperature;BME280_humidity;BME280_pressure;Samples;Min_cycle;Max_cycle;Signal;HPM_P1;HPM_P2
2023/09/07 00:01:46;;;;;;;6.13;3.53;;;;;;;17.80;100.00;101568.72;5913666;29;20167;-67
2023/09/07 00:04:43;;;;;;;6.85;3.55;;;;;;;17.77;100.00;101572.56;5913365;29;20536;-67
2023/09/07 00:07:38;;;;;;;5.65;3.40;;;;;;;17.68;100.00;101549.47;5913816;29;20052;-67
2023/09/07 00:10:35;;;;;;;6.77;3.70;;;;;;;17.73;100.00;101560.53;5913635;29;20040;-67
2023/09/07 00:13:30;;;;;;;7.13;3.30;;;;;;;17.78;100.00;101566.19;5913242;29;20056;-68
2023/09/07 00:16:26;;;;;;;6.32;3.50;;;;;;;17.92;100.00;101569.19;5912026;29;20476;-68
2023/09/07 00:19:21;;;;;;;5.80;3.27;;;;;;;17.86;100.00;101565.34;5913822;29;20044;-69
2023/09/07 00:22:17;;;;;;;5.50;3.63;;;;;;;17.73;100.00;101570.41;5913444;29;20273;-69
2023/09/07 00:25:13;;;;;;;7.05;3.58;;;;;;;17.51;100.00;101549.63;5912788;29;20496;-68
2023/09/07 00:28:08;;;;;;;6.45;3.28;;;;;;;17.71;100.00;101565.22;5913376;29;20437;-69
2023/09/07 00:31:04;;;;;;;8.17;3.87;;;;;;;17.67;100.00;101555.00;5913294;29;20128;-68
2023/09/07 00:33:59;;;;;;;5.83;3.30;;;;;;;17.52;100.00;101554.84;5912533;29;20089;-68
2023/09/07 00:36:54;;;;;;;6.63;3.77;;;;;;;17.31;100.00;101559.91;5913356;29;20100;-68
2023/09/07 00:39:50;;;;;;;7.67;3.07;;;;;;;16.91;100.00;101546.47;5912869;29;20033;-69
2023/09/07 00:42:45;;;;;;;6.05;3.40;;;;;;;16.90;100.00;101560.91;5913148;29;20400;-68
2023/09/07 00:45:40;;;;;;;5.93;3.23;;;;;;;16.88;100.00;101571.75;5912367;29;20033;-68
2023/09/07 00:48:36;;;;;;;6.67;3.60;;;;;;;17.05;100.00;101576.13;5911130;29;20025;-68
2023/09/07 00:51:32;;;;;;;7.25;3.70;;;;;;;16.94;100.00;101572.94;5906603;29;20058;-69
2023/09/07 00:54:28;;;;;;;7.90;3.88;;;;;;;16.92;100.00;101551.69;5918181;29;20028;-68
2023/09/07 00:57:24;;;;;;;9.02;4.28;;;;;;;16.93;100.00;101568.59;5908765;29;20068;-68
2023/09/07 01:00:19;;;;;;;6.03;4.00;;;;;;;16.82;100.00;101551.00;5895851;29;20491;-68
2023/09/07 01:03:15;;;;;;;9.23;4.33;;;;;;;16.81;100.00;101551.16;5912337;29;20044;-68
2023/09/07 01:06:22;;;;;;;11.07;4.17;;;;;;;16.80;100.00;101555.69;5912333;29;20048;-67
2023/09/07 01:09:21;;;;;;;6.28;3.70;;;;;;;17.02;100.00;101548.81;5912417;29;20115;-68
2023/09/07 01:12:17;;;;;;;8.88;4.32;;;;;;;17.00;100.00;101545.47;5895779;29;20036;-68
2023/09/07 01:15:12;;;;;;;9.82;4.20;;;;;;;16.93;100.00;101556.03;5911434;29;20108;-68
2023/09/07 01:18:08;;;;;;;7.13;4.05;;;;;;;17.04;100.00;101552.19;5912349;29;20071;-68
2023/09/07 01:21:07;;;;;;;6.88;3.60;;;;;;;16.92;100.00;101540.97;5902771;29;20033;-68
2023/09/07 01:24:09;;;;;;;10.02;4.70;;;;;;;16.97;100.00;101567.25;5911434;29;20042;-69
2023/09/07 01:27:05;;;;;;;9.45;4.45;;;;;;;16.72;100.00;101536.06;5911814;29;20033;-67
2023/09/07 01:30:02;;;;;;;11.15;5.15;;;;;;;16.70;100.00;101557.69;5912051;29;20047;-68
2023/09/07 01:32:57;;;;;;;10.15;5.13;;;;;;;16.64;100.00;101561.84;5912062;29;20151;-69
2023/09/07 01:35:53;;;;;;;6.07;3.97;;;;;;;16.50;100.00;101554.41;5911258;29;20092;-68
2023/09/07 01:38:48;;;;;;;9.27;4.60;;;;;;;16.37;100.00;101554.06;5911359;29;20032;-67
2023/09/07 01:41:43;;;;;;;8.23;4.67;;;;;;;16.26;100.00;101540.13;5911861;29;20036;-67
2023/09/07 01:44:38;;;;;;;8.50;4.00;;;;;;;16.20;100.00;101549.63;5910797;29;20393;-69
2023/09/07 01:47:34;;;;;;;9.20;4.60;;;;;;;16.32;100.00;101545.69;5911586;29;20504;-67
2023/09/07 01:50:29;;;;;;;9.57;4.03;;;;;;;16.18;100.00;101542.78;5911192;29;20075;-67
2023/09/07 01:53:24;;;;;;;6.87;4.03;;;;;;;16.14;100.00;101547.63;5910995;29;20290;-68
2023/09/07 01:56:20;;;;;;;7.13;4.33;;;;;;;16.15;100.00;101562.69;5910525;29;20043;-67
2023/09/07 01:59:15;;;;;;;8.27;4.38;;;;;;;16.26;100.00;101564.22;5911633;29;20381;-67
2023/09/07 02:02:10;;;;;;;7.10;4.10;;;;;;;16.34;100.00;101558.88;5911440;29;20036;-66
2023/09/07 02:05:06;;;;;;;9.40;4.23;;;;;;;16.35;100.00;101555.22;5910429;29;20043;-67
2023/09/07 02:08:01;;;;;;;8.52;4.60;;;;;;;16.18;100.00;101556.16;5910551;29;20036;-67
2023/09/07 02:10:56;;;;;;;7.53;4.22;;;;;;;16.25;100.00;101560.69;5911202;29;20491;-68
2023/09/07 02:13:52;;;;;;;8.37;4.77;;;;;;;16.19;100.00;101556.00;5910371;29;20068;-67
2023/09/07 02:16:47;;;;;;;7.33;4.03;;;;;;;16.28;100.00;101560.38;5923418;29;20035;-69
2023/09/07 02:19:42;;;;;;;6.67;4.23;;;;;;;16.21;100.00;101561.19;5915846;29;20040;-68
2023/09/07 02:22:39;;;;;;;7.22;4.35;;;;;;;16.05;100.00;101562.81;5910597;29;20028;-68
2023/09/07 02:25:34;;;;;;;11.93;4.90;;;;;;;16.02;100.00;101540.88;5910264;29;20036;-67
2023/09/07 02:28:30;;;;;;;7.32;4.40;;;;;;;16.07;100.00;101554.63;5911087;29;20048;-69
2023/09/07 02:31:25;;;;;;;7.50;4.25;;;;;;;16.16;100.00;101564.38;5911096;29;20124;-68
2023/09/07 02:34:20;;;;;;;9.80;4.13;;;;;;;15.89;100.00;101554.72;5909489;29;20036;-68
2023/09/07 02:37:16;;;;;;;9.17;4.50;;;;;;;15.96;100.00;101566.44;5910859;29;20299;-68
2023/09/07 02:40:11;;;;;;;11.00;4.07;;;;;;;15.87;100.00;101570.06;5909371;29;20284;-68
2023/09/07 02:43:06;;;;;;;8.55;4.72;;;;;;;15.66;100.00;101566.94;5910757;29;20029;-68
2023/09/07 02:46:02;;;;;;;7.70;4.57;;;;;;;15.76;100.00;101564.19;5909890;29;20083;-68
2023/09/07 02:48:57;;;;;;;10.23;5.40;;;;;;;15.87;100.00;101566.56;5910274;29;20029;-68
2023/09/07 02:51:53;;;;;;;7.55;4.68;;;;;;;15.77;100.00;101576.53;5910593;29;20036;-69
2023/09/07 02:54:48;;;;;;;7.77;4.60;;;;;;;15.59;100.00;101565.06;5910996;29;20464;-68
2023/09/07 02:57:43;;;;;;;9.40;4.97;;;;;;;15.64;100.00;101578.78;5910519;29;20514;-67
2023/09/07 03:00:44;;;;;;;7.63;4.67;;;;;;;15.69;100.00;101587.19;5910325;29;20040;-67
2023/09/07 03:03:41;;;;;;;8.88;5.00;;;;;;;15.68;100.00;101572.16;5909496;29;20032;-66
2023/09/07 03:06:36;;;;;;;9.52;5.63;;;;;;;15.61;100.00;101552.38;5910491;29;20028;-67
2023/09/07 03:09:31;;;;;;;13.10;6.50;;;;;;;15.61;100.00;101560.38;5909965;29;20395;-68
2023/09/07 03:12:27;;;;;;;11.27;6.20;;;;;;;15.51;100.00;101559.66;5910253;29;20048;-66
2023/09/07 03:15:22;;;;;;;10.65;5.63;;;;;;;15.40;100.00;101569.59;5909443;29;20043;-68
2023/09/07 03:18:18;;;;;;;15.80;6.07;;;;;;;15.39;100.00;101578.59;5910243;29;20036;-66
2023/09/07 03:21:13;;;;;;;10.07;4.87;;;;;;;15.43;100.00;101561.28;5910437;29;20036;-66
2023/09/07 03:24:08;;;;;;;8.83;4.83;;;;;;;15.48;100.00;101575.03;5909329;29;20041;-69
2023/09/07 03:27:05;;;;;;;8.43;5.20;;;;;;;15.48;100.00;101571.50;5910254;29;20028;-67
2023/09/07 03:30:01;;;;;;;8.75;5.32;;;;;;;15.46;100.00;101582.34;5909632;29;20116;-68
2023/09/07 03:32:56;;;;;;;8.63;4.93;;;;;;;15.36;100.00;101578.91;5910009;29;20032;-67
2023/09/07 03:35:51;;;;;;;8.60;4.93;;;;;;;15.33;100.00;101568.53;5909528;29;20044;-68
2023/09/07 03:38:48;;;;;;;10.45;5.18;;;;;;;15.53;100.00;101576.38;5909916;29;20629;-68
2023/09/07 03:41:43;;;;;;;8.50;4.93;;;;;;;15.38;100.00;101586.78;5910228;29;20045;-66
2023/09/07 03:44:39;;;;;;;10.80;4.93;;;;;;;15.19;100.00;101582.44;5908974;29;20040;-68
2023/09/07 03:47:34;;;;;;;10.02;5.13;;;;;;;15.11;100.00;101569.00;5910067;29;20046;-69
2023/09/07 03:50:30;;;;;;;10.27;5.30;;;;;;;15.13;100.00;101583.06;5910970;29;20048;-67
2023/09/07 03:53:25;;;;;;;8.93;5.27;;;;;;;15.11;100.00;101579.69;5913015;29;20024;-68
2023/09/07 03:56:20;;;;;;;9.43;5.30;;;;;;;15.05;100.00;101564.31;5914328;29;20040;-68
2023/09/07 03:59:16;;;;;;;10.33;5.83;;;;;;;15.04;100.00;101573.31;5913854;29;20044;-67
2023/09/07 04:02:12;;;;;;;9.83;4.63;;;;;;;15.05;100.00;101561.63;5913741;29;20044;-68
2023/09/07 04:05:08;;;;;;;10.90;5.68;;;;;;;15.00;100.00;101563.91;5913421;29;20024;-66
2023/09/07 04:08:03;;;;;;;9.68;5.50;;;;;;;15.08;100.00;101574.69;5913561;29;20088;-67
2023/09/07 04:11:03;;;;;;;12.65;5.32;;;;;;;15.08;100.00;101577.34;5914102;29;20046;-69
2023/09/07 04:13:59;;;;;;;9.52;5.20;;;;;;;15.08;100.00;101565.81;5913165;29;20040;-68
2023/09/07 04:16:54;;;;;;;11.17;6.20;;;;;;;15.05;100.00;101574.16;5913229;29;20033;-68
2023/09/07 04:19:49;;;;;;;10.87;5.27;;;;;;;14.98;100.00;101586.41;5913444;29;20309;-67
2023/09/07 04:22:45;;;;;;;9.57;5.17;;;;;;;14.97;100.00;101588.28;5913145;29;20037;-68
2023/09/07 04:25:40;;;;;;;8.70;5.30;;;;;;;14.76;100.00;101564.53;5913017;29;20058;-68
2023/09/07 04:28:36;;;;;;;10.33;5.50;;;;;;;14.94;100.00;101577.03;5913452;29;20044;-68
2023/09/07 04:31:31;;;;;;;9.88;5.47;;;;;;;14.95;100.00;101576.88;5913455;29;20072;-67
2023/09/07 04:34:26;;;;;;;12.40;5.33;;;;;;;15.02;100.00;101596.66;5912423;29;20435;-68
2023/09/07 04:37:22;;;;;;;8.40;5.27;;;;;;;15.00;100.00;101581.78;5912674;29;20281;-68
2023/09/07 04:40:18;;;;;;;14.05;5.72;;;;;;;15.00;100.00;101585.28;5913295;29;20269;-67
2023/09/07 04:43:13;;;;;;;14.43;4.97;;;;;;;15.02;100.00;101588.66;5912975;29;20472;-68
2023/09/07 04:46:10;;;;;;;11.40;6.10;;;;;;;14.96;100.00;101596.44;5912722;29;20328;-68
2023/09/07 04:49:07;;;;;;;9.25;5.38;;;;;;;15.00;100.00;101593.28;5912068;29;20496;-67
2023/09/07 04:52:03;;;;;;;12.30;5.60;;;;;;;15.21;100.00;101601.00;5912556;29;20096;-69
2023/09/07 04:54:58;;;;;;;10.45;5.30;;;;;;;15.09;100.00;101591.53;5912334;29;20040;-68
2023/09/07 04:57:53;;;;;;;8.73;4.37;;;;;;;15.24;100.00;101590.00;5912799;29;20042;-68
2023/09/07 05:00:49;;;;;;;11.33;4.97;;;;;;;15.04;100.00;101586.66;5912725;29;20037;-67
2023/09/07 05:03:44;;;;;;;11.00;5.50;;;;;;;15.10;100.00;101591.41;5911415;29;20135;-68
2023/09/07 05:06:41;;;;;;;9.37;5.10;;;;;;;15.25;100.00;101607.69;5912082;29;20047;-67
2023/09/07 05:09:36;;;;;;;10.45;5.97;;;;;;;15.28;100.00;101608.25;5912709;29;20549;-68
2023/09/07 05:12:32;;;;;;;14.93;6.60;;;;;;;15.07;100.00;101594.38;5912432;29;20114;-69
2023/09/07 05:15:27;;;;;;;14.00;5.53;;;;;;;15.03;100.00;101601.00;5911857;29;20049;-68
2023/09/07 05:18:22;;;;;;;11.63;6.10;;;;;;;15.05;100.00;101612.41;5915499;29;20116;-68
2023/09/07 05:21:18;;;;;;;10.88;5.90;;;;;;;15.12;100.00;101605.44;5913028;29;20064;-67
2023/09/07 05:24:14;;;;;;;11.35;5.65;;;;;;;15.12;100.00;101597.41;5911382;29;20401;-67
2023/09/07 05:27:10;;;;;;;11.00;5.90;;;;;;;15.26;100.00;101596.03;5911879;29;20163;-67
2023/09/07 05:30:06;;;;;;;12.35;5.70;;;;;;;15.76;100.00;101612.31;5912231;29;20382;-68
2023/09/07 05:33:01;;;;;;;10.07;5.18;;;;;;;16.19;100.00;101601.50;5911709;29;20557;-68
2023/09/07 05:35:57;;;;;;;10.40;5.73;;;;;;;16.69;100.00;101603.41;5911101;29;20036;-66
2023/09/07 05:38:52;;;;;;;11.47;6.13;;;;;;;16.52;100.00;101592.56;5911951;29;20721;-68
2023/09/07 05:41:49;;;;;;;9.50;6.03;;;;;;;17.48;100.00;101603.59;5911111;29;20032;-67
2023/09/07 05:44:45;;;;;;;11.75;5.47;;;;;;;17.49;98.29;101587.34;5911121;29;20411;-66
2023/09/07 05:47:40;;;;;;;11.52;5.82;;;;;;;17.40;96.31;101596.41;5911695;29;20033;-68
2023/09/07 05:50:37;;;;;;;8.17;5.23;;;;;;;17.57;97.02;101600.78;5911801;29;20044;-68
2023/09/07 05:53:32;;;;;;;12.05;5.60;;;;;;;17.81;95.22;101599.91;5911019;29;20511;-68
2023/09/07 05:56:27;;;;;;;11.10;5.87;;;;;;;17.95;95.03;101601.88;5910377;29;20040;-68
2023/09/07 05:59:23;;;;;;;12.17;6.00;;;;;;;18.15;93.90;101602.34;5911617;29;20047;-67
2023/09/07 06:02:18;;;;;;;9.27;5.70;;;;;;;17.76;95.54;101592.38;5911324;29;20291;-69
2023/09/07 06:05:14;;;;;;;12.73;5.23;;;;;;;18.05;93.12;101612.41;5910749;29;20036;-67
2023/09/07 06:08:09;;;;;;;9.50;5.60;;;;;;;18.18;93.38;101610.03;5911375;29;20273;-68
2023/09/07 06:11:05;;;;;;;10.10;5.40;;;;;;;18.65;90.85;101618.06;5911145;29;20037;-67
2023/09/07 06:14:00;;;;;;;9.75;5.50;;;;;;;18.67;91.37;101606.13;5918668;29;20339;-67
2023/09/07 06:16:56;;;;;;;9.07;5.33;;;;;;;18.29;92.47;101596.25;5910365;29;20508;-69
2023/09/07 06:19:51;;;;;;;9.43;5.37;;;;;;;18.84;90.58;101615.78;5908724;29;20043;-69
2023/09/07 06:22:46;;;;;;;9.90;5.23;;;;;;;18.94;87.45;101608.31;5910105;29;20029;-68
2023/09/07 06:25:42;;;;;;;11.43;5.33;;;;;;;19.32;87.04;101616.44;5910141;29;20059;-68
2023/09/07 06:28:37;;;;;;;9.23;5.33;;;;;;;18.95;89.16;101623.44;5910358;29;20285;-69
2023/09/07 06:31:32;;;;;;;10.40;5.73;;;;;;;18.98;87.69;101620.41;5909601;29;20102;-66
2023/09/07 06:34:28;;;;;;;8.77;5.27;;;;;;;18.97;90.34;101628.63;5908774;29;20029;-67
2023/09/07 06:37:24;;;;;;;10.90;5.40;;;;;;;19.27;88.01;101616.16;5910250;29;20104;-67
2023/09/07 06:40:19;;;;;;;10.52;5.15;;;;;;;19.36;88.81;101631.19;5918092;29;20048;-67
2023/09/07 06:43:15;;;;;;;8.30;5.17;;;;;;;20.01;84.51;101640.38;5908781;29;20529;-66
2023/09/07 06:46:10;;;;;;;8.80;5.57;;;;;;;19.94;82.99;101631.38;5909356;29;20280;-66
2023/09/07 06:49:05;;;;;;;11.10;5.85;;;;;;;19.88;82.79;101621.31;5909927;29;20288;-69
2023/09/07 06:52:02;;;;;;;11.30;5.70;;;;;;;19.80;83.97;101631.34;5899695;29;20037;-67
2023/09/07 06:54:57;;;;;;;11.90;5.85;;;;;;;19.58;84.56;101625.00;5910644;29;20047;-67
2023/09/07 06:57:53;;;;;;;10.97;6.00;;;;;;;20.02;82.77;101627.75;5908845;29;20040;-67
2023/09/07 07:00:49;;;;;;;13.48;5.55;;;;;;;20.35;82.48;101634.47;5912905;29;20698;-69
2023/09/07 07:03:44;;;;;;;11.17;6.27;;;;;;;20.26;81.41;101637.44;5919238;29;20025;-67
2023/09/07 07:06:39;;;;;;;11.20;5.40;;;;;;;20.57;81.60;101633.47;5903973;29;20088;-68
2023/09/07 07:09:35;;;;;;;9.87;4.97;;;;;;;20.61;81.37;101629.41;5909521;29;20052;-68
2023/09/07 07:12:34;;;;;;;9.65;5.32;;;;;;;20.84;79.68;101629.25;5910048;29;20428;-70
2023/09/07 07:15:29;;;;;;;10.40;5.45;;;;;;;20.98;79.92;101624.84;5911607;29;20407;-67
2023/09/07 07:18:24;;;;;;;8.50;5.60;;;;;;;21.17;77.61;101627.75;5911755;29;20036;-66
2023/09/07 07:21:20;;;;;;;10.87;5.03;;;;;;;21.14;78.66;101636.25;5909575;29;20037;-67
2023/09/07 07:24:15;;;;;;;7.90;5.10;;;;;;;21.18;77.81;101631.28;5915832;29;20040;-69
2023/09/07 07:27:11;;;;;;;9.00;5.18;;;;;;;21.54;76.68;101631.22;5912469;29;20355;-68
2023/09/07 07:30:06;;;;;;;9.97;5.43;;;;;;;21.49;77.25;101622.88;5913770;29;20033;-68
2023/09/07 07:33:05;;;;;;;9.63;4.95;;;;;;;21.73;74.75;101625.97;5913129;29;20032;-69
2023/09/07 07:36:01;;;;;;;8.45;4.80;;;;;;;21.71;74.39;101616.41;5895516;29;20044;-66
2023/09/07 07:38:56;;;;;;;10.25;4.82;;;;;;;21.61;74.23;101594.28;5914322;29;20552;-68
2023/09/07 07:41:52;;;;;;;7.15;4.78;;;;;;;22.08;73.01;101636.81;5913550;29;20084;-69
2023/09/07 07:44:47;;;;;;;11.73;4.93;;;;;;;21.90;72.67;101621.13;5912881;29;20488;-68
2023/09/07 07:47:42;;;;;;;9.30;4.53;;;;;;;22.00;73.87;101637.81;5912390;29;20360;-69
2023/09/07 07:50:41;;;;;;;8.33;5.23;;;;;;;22.23;71.86;101622.16;5914079;29;20060;-67
2023/09/07 07:53:36;;;;;;;8.95;5.65;;;;;;;22.32;70.78;101637.19;5928815;29;20037;-67
2023/09/07 07:56:31;;;;;;;9.67;5.00;;;;;;;22.31;72.26;101640.91;5914921;29;20036;-67
2023/09/07 07:59:26;;;;;;;12.87;4.97;;;;;;;22.51;72.34;101641.84;5929615;29;20042;-66
2023/09/07 08:02:22;;;;;;;7.72;4.55;;;;;;;22.82;72.06;101651.34;5923364;29;20432;-67
2023/09/07 08:05:17;;;;;;;8.23;4.70;;;;;;;23.15;70.03;101649.56;5911970;29;20080;-69
2023/09/07 08:08:12;;;;;;;8.98;4.50;;;;;;;23.31;68.57;101643.78;5913202;29;20032;-67
2023/09/07 08:11:09;;;;;;;8.67;4.83;;;;;;;23.16;68.31;101632.28;5912585;29;20042;-66
2023/09/07 08:14:04;;;;;;;7.80;4.32;;;;;;;23.53;67.86;101626.31;5918717;29;20036;-66
2023/09/07 08:16:59;;;;;;;9.57;5.00;;;;;;;23.65;66.12;101623.78;5922480;29;20028;-69
2023/09/07 08:19:56;;;;;;;7.70;5.00;;;;;;;23.60;67.36;101627.16;5915386;29;20752;-72
2023/09/07 08:22:52;;;;;;;10.30;5.70;;;;;;;23.54;67.56;101622.56;5904732;29;20127;-68
2023/09/07 08:25:52;;;;;;;7.05;4.68;;;;;;;23.74;67.62;101635.25;5929733;29;20488;-65
2023/09/07 08:28:47;;;;;;;9.25;4.50;;;;;;;24.16;66.90;101635.63;5912123;29;20037;-68
2023/09/07 08:31:45;;;;;;;10.67;4.37;;;;;;;24.36;64.90;101622.00;5911909;29;20064;-71
2023/09/07 08:34:41;;;;;;;9.85;4.82;;;;;;;24.58;62.63;101619.84;5910855;29;20281;-69
2023/09/07 08:37:36;;;;;;;9.18;4.85;;;;;;;24.50;63.30;101620.91;5910926;29;20040;-69
2023/09/07 08:40:34;;;;;;;12.20;4.30;;;;;;;24.77;63.20;101614.31;5912236;29;20457;-68
2023/09/07 08:43:33;;;;;;;8.40;5.32;;;;;;;24.89;61.31;101605.53;5921660;29;20076;-67
2023/09/07 08:46:30;;;;;;;11.63;4.47;;;;;;;25.25;59.46;101613.81;5910684;29;20119;-70
2023/09/07 08:49:25;;;;;;;8.23;4.20;;;;;;;25.29;57.67;101620.50;5911399;29;20483;-69
2023/09/07 08:52:21;;;;;;;9.48;4.22;;;;;;;25.55;56.58;101611.34;5915708;29;20032;-68
2023/09/07 08:55:17;;;;;;;11.65;4.25;;;;;;;25.68;55.80;101622.91;5917446;29;20043;-69
2023/09/07 08:58:13;;;;;;;8.90;3.67;;;;;;;25.80;55.15;101621.13;5926541;29;20037;-69
2023/09/07 09:01:08;;;;;;;7.35;4.18;;;;;;;25.96;54.65;101628.69;5911582;29;20040;-68
2023/09/07 09:04:04;;;;;;;6.40;4.13;;;;;;;25.92;54.29;101634.81;5910735;29;20039;-69
2023/09/07 09:07:03;;;;;;;9.57;4.70;;;;;;;26.14;54.19;101624.38;5915800;29;20480;-69
2023/09/07 09:10:08;;;;;;;8.50;4.50;;;;;;;25.86;53.62;101631.09;5903008;29;20055;-67
2023/09/07 09:13:04;;;;;;;9.48;4.47;;;;;;;25.96;53.23;101625.97;5911563;29;20044;-66
2023/09/07 09:16:01;;;;;;;7.88;4.18;;;;;;;26.03;52.87;101629.47;5909830;29;20177;-68
2023/09/07 09:18:57;;;;;;;5.70;4.18;;;;;;;26.46;52.19;101612.25;5909588;29;20040;-68
2023/09/07 09:21:55;;;;;;;8.82;4.53;;;;;;;26.04;52.93;101606.66;5911474;29;20507;-68
2023/09/07 09:24:51;;;;;;;10.18;4.40;;;;;;;26.33;52.23;101613.25;5906430;29;20119;-67
2023/09/07 09:27:47;;;;;;;7.93;4.20;;;;;;;26.48;51.94;101613.69;5913851;29;20038;-68
2023/09/07 09:30:43;;;;;;;9.30;4.10;;;;;;;26.50;50.78;101614.28;5910604;29;20547;-68
2023/09/07 09:33:42;;;;;;;11.98;4.45;;;;;;;26.71;51.45;101617.59;5910554;29;20039;-67
2023/09/07 09:36:40;;;;;;;9.68;4.35;;;;;;;26.47;52.00;101594.88;5910724;29;20044;-69
2023/09/07 09:39:35;;;;;;;7.45;3.78;;;;;;;26.70;50.86;101594.13;5925325;29;20123;-66
2023/09/07 09:42:31;;;;;;;7.85;4.05;;;;;;;27.04;49.53;101604.38;5893932;29;20048;-68
2023/09/07 09:45:26;;;;;;;6.90;4.43;;;;;;;26.73;50.20;101589.06;5909920;29;20067;-68
2023/09/07 09:48:22;;;;;;;10.20;3.97;;;;;;;26.61;50.68;101590.91;5910139;29;20032;-69
2023/09/07 09:51:18;;;;;;;5.80;3.95;;;;;;;26.83;50.53;101597.53;5911686;29;20032;-67
2023/09/07 09:54:13;;;;;;;8.35;4.18;;;;;;;27.02;49.80;101593.69;5916654;29;20465;-69
2023/09/07 09:57:09;;;;;;;13.15;4.63;;;;;;;27.05;49.43;101595.97;5910141;29;20048;-70
2023/09/07 10:03:30;;;;;;;9.00;4.80;;;;;;;27.58;48.28;101582.34;5910023;29;20036;-67
2023/09/07 10:06:32;;;;;;;8.10;3.97;;;;;;;27.37;48.24;101585.59;5909854;29;20036;-67
2023/09/07 10:09:32;;;;;;;9.32;4.15;;;;;;;27.23;48.61;101577.88;5909651;29;20079;-68
2023/09/07 10:12:27;;;;;;;9.68;4.32;;;;;;;27.16;49.33;101584.25;5911611;29;20036;-68
2023/09/07 10:15:24;;;;;;;7.53;4.82;;;;;;;27.30;48.73;101579.44;5910942;29;20069;-67
2023/09/07 10:18:20;;;;;;;7.68;3.88;;;;;;;27.20;48.40;101580.00;5909903;29;20040;-67
2023/09/07 10:21:15;;;;;;;6.30;3.80;;;;;;;27.32;48.89;101582.75;5909934;29;20036;-67
2023/09/07 10:24:10;;;;;;;9.77;4.63;;;;;;;27.57;48.31;101598.91;5908673;29;20024;-67
2023/09/07 10:27:07;;;;;;;5.80;4.13;;;;;;;27.79;47.50;101591.81;5912541;29;20303;-68
2023/09/07 10:30:09;;;;;;;8.80;4.68;;;;;;;27.54;48.49;101592.03;5914836;29;20041;-67
2023/09/07 10:33:05;;;;;;;6.50;4.32;;;;;;;27.90;47.91;101573.78;5910345;29;20032;-68
2023/09/07 10:36:01;;;;;;;9.55;4.55;;;;;;;28.01;47.36;101587.41;5919213;29;20085;-67
2023/09/07 10:38:57;;;;;;;7.72;4.43;;;;;;;28.06;47.33;101573.91;5918193;29;20036;-70
2023/09/07 10:41:52;;;;;;;8.47;3.87;;;;;;;28.25;47.24;101575.41;5908779;29;20092;-69
2023/09/07 10:44:47;;;;;;;7.40;4.10;;;;;;;28.30;47.25;101578.22;5911510;29;20788;-68
2023/09/07 10:47:43;;;;;;;6.27;3.87;;;;;;;28.53;45.47;101568.31;5915316;29;20277;-69
2023/09/07 10:50:43;;;;;;;7.95;4.32;;;;;;;28.44;44.83;101569.75;5909676;29;20029;-70
2023/09/07 10:53:39;;;;;;;9.13;3.90;;;;;;;28.76;44.82;101570.94;5908923;29;20037;-68
2023/09/07 10:56:34;;;;;;;7.45;4.38;;;;;;;28.79;43.68;101563.09;5909324;29;20039;-68
2023/09/07 10:59:29;;;;;;;7.60;3.93;;;;;;;28.59;44.33;101556.41;5909025;29;20047;-68
2023/09/07 11:02:25;;;;;;;7.35;4.03;;;;;;;28.52;44.40;101563.91;5908952;29;20028;-68
2023/09/07 11:05:20;;;;;;;6.30;3.53;;;;;;;28.69;44.42;101545.69;5908779;29;20035;-68
2023/09/07 11:08:15;;;;;;;6.47;3.90;;;;;;;28.93;44.02;101536.31;5935806;29;20459;-69
2023/09/07 11:11:12;;;;;;;7.53;3.47;;;;;;;28.77;44.17;101531.66;5909279;29;20035;-67
2023/09/07 11:14:07;;;;;;;10.02;3.88;;;;;;;28.78;43.63;101545.03;5908852;29;20445;-67
2023/09/07 11:17:03;;;;;;;6.82;3.60;;;;;;;29.02;43.05;101537.56;5913122;29;20025;-67
2023/09/07 11:19:58;;;;;;;6.13;3.78;;;;;;;29.31;42.93;101546.53;5910524;29;20025;-68
2023/09/07 11:22:53;;;;;;;8.40;4.07;;;;;;;29.17;43.57;101543.25;5909419;29;20035;-67
2023/09/07 11:25:49;;;;;;;7.37;3.80;;;;;;;28.90;42.59;101529.44;5908172;29;20485;-70
2023/09/07 11:28:46;;;;;;;5.88;3.80;;;;;;;28.83;42.96;101533.41;5909120;29;20032;-68
2023/09/07 11:31:42;;;;;;;8.80;4.07;;;;;;;28.70;42.72;101509.13;5908476;29;20455;-68
2023/09/07 11:34:51;;;;;;;7.75;3.85;;;;;;;28.92;42.83;101534.63;5908635;29;20520;-67
2023/09/07 11:37:51;;;;;;;10.38;3.95;;;;;;;29.01;42.34;101529.59;5908942;29;20116;-68
2023/09/07 11:40:47;;;;;;;49.08;8.98;;;;;;;29.11;42.72;101527.84;5907620;29;20040;-68
2023/09/07 11:43:42;;;;;;;7.67;4.07;;;;;;;29.23;41.92;101506.78;5908093;29;20107;-68
2023/09/07 11:46:38;;;;;;;6.77;3.37;;;;;;;28.69;42.71;101518.41;5907620;29;20301;-68
2023/09/07 11:49:33;;;;;;;8.73;3.88;;;;;;;29.13;42.39;101516.69;5908586;29;20040;-70
2023/09/07 11:52:28;;;;;;;5.77;3.90;;;;;;;28.85;42.10;101504.75;5908729;29;20062;-67
2023/09/07 11:55:24;;;;;;;8.90;3.53;;;;;;;28.72;42.80;101504.25;5908415;29;20269;-68
2023/09/07 11:58:19;;;;;;;4.97;3.25;;;;;;;28.99;42.46;101523.56;5906760;29;20044;-68
2023/09/07 12:01:16;;;;;;;6.20;3.67;;;;;;;29.32;41.81;101524.41;5908448;29;20029;-67
2023/09/07 12:04:11;;;;;;;7.18;3.80;;;;;;;29.09;41.46;101521.81;5908065;29;20035;-69
2023/09/07 12:07:06;;;;;;;4.93;3.40;;;;;;;29.29;41.27;101515.88;5912704;29;20024;-68
2023/09/07 12:10:03;;;;;;;6.15;3.38;;;;;;;29.34;41.71;101505.84;5913684;29;20273;-68
2023/09/07 12:12:58;;;;;;;5.85;3.92;;;;;;;29.32;41.15;101502.56;5911155;29;20028;-68
2023/09/07 12:15:53;;;;;;;7.20;3.70;;;;;;;29.20;41.86;101504.50;5911221;29;20100;-67
2023/09/07 12:18:49;;;;;;;6.17;3.33;;;;;;;29.72;41.14;101501.47;5912781;29;20429;-69
2023/09/07 12:21:44;;;;;;;7.32;3.67;;;;;;;29.81;40.23;101505.44;5915401;29;20488;-68
2023/09/07 12:24:39;;;;;;;7.30;4.10;;;;;;;29.67;40.29;101495.94;5921254;29;20384;-69
2023/09/07 12:27:35;;;;;;;9.18;3.85;;;;;;;29.76;39.96;101488.94;5912388;29;20096;-68
2023/09/07 12:30:30;;;;;;;12.37;8.93;;;;;;;29.85;40.59;101506.59;5910702;29;20049;-67
2023/09/07 12:33:25;;;;;;;8.67;3.87;;;;;;;29.39;40.62;101492.25;5911584;29;20389;-67
2023/09/07 12:36:21;;;;;;;8.03;3.30;;;;;;;29.55;40.40;101508.88;5911365;29;20056;-68
2023/09/07 12:39:17;;;;;;;8.00;3.72;;;;;;;29.98;40.75;101484.31;5911468;29;20032;-68
2023/09/07 12:42:14;;;;;;;4.88;3.15;;;;;;;29.92;39.49;101491.63;5911398;29;20388;-68
2023/09/07 12:45:10;;;;;;;7.03;3.55;;;;;;;30.02;39.18;101491.78;5911077;29;20365;-69
2023/09/07 12:48:06;;;;;;;5.57;3.92;;;;;;;29.92;39.64;101501.75;5912029;29;20047;-68
2023/09/07 12:51:01;;;;;;;7.63;3.53;;;;;;;29.93;39.29;101487.81;5915740;29;20024;-68
2023/09/07 12:53:56;;;;;;;6.47;3.40;;;;;;;29.83;38.80;101489.59;5920669;29;20072;-69
2023/09/07 12:56:52;;;;;;;12.17;3.60;;;;;;;29.65;38.89;101489.88;5911511;29;20041;-69
2023/09/07 12:59:49;;;;;;;7.47;3.42;;;;;;;29.72;38.62;101483.16;5911731;29;20287;-68
2023/09/07 13:02:44;;;;;;;5.38;3.45;;;;;;;29.73;37.33;101486.72;5911784;29;20611;-68
2023/09/07 13:05:39;;;;;;;7.93;3.40;;;;;;;29.55;38.34;101478.78;5910433;29;20050;-68
2023/09/07 13:08:35;;;;;;;5.93;3.70;;;;;;;29.97;37.48;101482.66;5921598;29;20287;-69
2023/09/07 13:11:30;;;;;;;5.32;3.25;;;;;;;29.66;37.80;101466.91;5929009;29;20332;-68
2023/09/07 13:14:26;;;;;;;5.00;3.20;;;;;;;29.60;37.51;101465.22;5919129;29;20029;-68
2023/09/07 13:17:21;;;;;;;4.10;2.90;;;;;;;29.65;37.29;101446.94;5911362;29;20037;-67
2023/09/07 13:20:16;;;;;;;6.73;3.20;;;;;;;29.91;36.98;101465.38;5911134;29;20496;-69
2023/09/07 13:23:12;;;;;;;5.80;3.23;;;;;;;29.74;37.23;101450.06;5910473;29;20047;-68
2023/09/07 13:26:07;;;;;;;7.07;3.83;;;;;;;29.75;37.37;101454.47;5910285;29;20693;-68
2023/09/07 13:29:03;;;;;;;7.30;3.37;;;;;;;30.08;37.26;101457.09;5911344;29;20043;-67
2023/09/07 13:31:59;;;;;;;4.93;3.17;;;;;;;29.89;37.18;101450.28;5910393;29;20340;-68
2023/09/07 13:34:54;;;;;;;6.45;3.28;;;;;;;29.92;37.33;101453.31;5905729;29;20043;-68